Time;durP1;ratioP1;P1;durP2;ratioP2;P2;SDS_P1;SDS_P2;PMS_P1;PMS_P2;Temp;Humidity;BMP_temperature;BMP_pressure;BME280_temperature;BME280_humidity;BME280_pressure;Samples;Min_cycle;Max_cycle;Signal;HPM_P1;HPM_P2
2022/06/12 00:01:06;;;;;;;21.97;10.20;;;;;;;20.34;100.00;99575.91;1628920;87;21068;-76
2022/06/12 00:03:33;;;;;;;20.95;10.53;;;;;;;20.27;100.00;99572.78;1628872;88;21069;-76
2022/06/12 00:06:00;;;;;;;21.23;10.75;;;;;;;20.21;100.00;99566.89;1628863;88;21048;-75
2022/06/12 00:08:30;;;;;;;20.55;10.38;;;;;;;20.16;100.00;99559.94;1628918;88;21045;-76
2022/06/12 00:10:58;;;;;;;21.12;10.38;;;;;;;20.07;100.00;99567.73;1628741;88;21036;-76
2022/06/12 00:13:30;;;;;;;22.07;11.90;;;;;;;20.00;100.00;99568.41;1628688;88;21133;-76
2022/06/12 00:15:57;;;;;;;21.80;12.30;;;;;;;20.03;100.00;99574.79;1568810;91;21083;-75
2022/06/12 00:18:26;;;;;;;23.00;12.63;;;;;;;20.15;100.00;99573.38;1566927;92;21123;-75
2022/06/12 00:21:10;;;;;;;23.47;12.13;;;;;;;20.25;100.00;99560.38;1528091;93;21064;-75
2022/06/12 00:23:22;;;;;;;22.62;12.68;;;;;;;20.30;100.00;99556.35;1564053;92;21083;-76
2022/06/12 00:25:50;;;;;;;24.20;12.58;;;;;;;20.29;100.00;99558.27;1567286;91;21154;-79
2022/06/12 00:28:16;;;;;;;20.70;12.07;;;;;;;20.27;100.00;99562.33;1567369;90;21074;-79
2022/06/12 00:30:44;;;;;;;19.82;11.63;;;;;;;20.24;100.00;99547.74;1567197;92;21082;-78
2022/06/12 00:33:11;;;;;;;21.15;11.18;;;;;;;20.20;100.00;99555.64;1567440;92;21099;-78
2022/06/12 00:35:38;;;;;;;22.40;11.60;;;;;;;20.17;100.00;99548.41;1567355;92;21111;-78
2022/06/12 00:38:05;;;;;;;21.75;11.70;;;;;;;20.13;100.00;99551.36;1567651;90;21038;-79
2022/06/12 00:40:32;;;;;;;20.85;12.20;;;;;;;20.12;100.00;99556.02;1567316;92;21071;-78
2022/06/12 00:43:01;;;;;;;23.22;11.70;;;;;;;20.11;100.00;99552.97;1567259;90;21155;-78
2022/06/12 00:45:51;;;;;;;24.20;12.58;;;;;;;20.11;100.00;99548.86;1528697;94;21077;-79
2022/06/12 00:48:21;;;;;;;23.87;11.85;;;;;;;20.06;100.00;99553.73;1567336;91;21086;-78
2022/06/12 00:51:12;;;;;;;21.82;12.33;;;;;;;20.00;100.00;99545.09;1557764;91;21120;-79
2022/06/12 00:53:55;;;;;;;22.73;12.00;;;;;;;19.97;100.00;99546.12;1572633;91;21090;-78
2022/06/12 00:56:27;;;;;;;23.70;11.95;;;;;;;19.91;100.00;99549.31;1572904;91;21071;-78
2022/06/12 00:58:59;;;;;;;21.82;11.43;;;;;;;19.87;100.00;99553.08;1558428;91;21106;-78
2022/06/12 01:01:31;;;;;;;20.77;11.50;;;;;;;19.86;100.00;99551.40;1558441;91;21058;-79
2022/06/12 01:06:46;;;;;;;21.85;12.28;;;;;;;19.88;100.00;99552.53;1557269;92;21075;-79
2022/06/12 01:09:22;;;;;;;22.62;11.38;;;;;;;19.94;100.00;99554.83;1557514;92;21577;-79
2022/06/12 01:11:51;;;;;;;19.10;11.00;;;;;;;20.00;100.00;99548.38;1561199;90;21086;-78
2022/06/12 01:14:23;;;;;;;20.82;11.25;;;;;;;20.09;100.00;99553.77;1650019;86;21034;-79
2022/06/12 01:16:53;;;;;;;21.87;11.63;;;;;;;20.15;100.00;99554.17;1672002;86;21062;-79
2022/06/12 01:19:37;;;;;;;21.45;11.40;;;;;;;20.19;100.00;99550.39;1671941;86;21354;-79
2022/06/12 01:22:12;;;;;;;22.10;11.55;;;;;;;20.20;100.00;99553.41;1667677;86;21026;-79
2022/06/12 01:25:20;;;;;;;26.48;11.70;;;;;;;20.22;100.00;99549.88;1637216;88;21167;-79
2022/06/12 01:28:09;;;;;;;22.55;11.53;;;;;;;20.19;100.00;99551.22;1637590;86;21068;-79
2022/06/12 01:31:06;;;;;;;23.18;11.78;;;;;;;20.14;100.00;99542.06;1634318;88;21063;-78
2022/06/12 01:34:02;;;;;;;21.00;11.53;;;;;;;20.10;100.00;99540.34;1637427;86;21001;-79
2022/06/12 01:36:50;;;;;;;23.10;11.20;;;;;;;20.08;100.00;99543.33;1628836;88;21143;-79
2022/06/12 01:39:37;;;;;;;21.42;11.85;;;;;;;20.10;100.00;99538.97;1619428;89;21139;-78
2022/06/12 01:42:14;;;;;;;24.63;11.68;;;;;;;20.10;100.00;99534.31;1619427;89;21072;-78
2022/06/12 01:45:01;;;;;;;19.87;10.55;;;;;;;20.11;100.00;99539.25;1616681;89;21570;-79
2022/06/12 01:47:52;;;;;;;22.42;11.43;;;;;;;20.09;100.00;99540.86;1619347;87;21646;-78
2022/06/12 01:50:44;;;;;;;24.10;11.25;;;;;;;20.09;100.00;99538.67;1619539;89;21060;-79
2022/06/12 01:53:33;;;;;;;24.02;12.23;;;;;;;20.09;100.00;99543.61;1619299;89;21081;-79
2022/06/12 01:56:12;;;;;;;23.70;11.18;;;;;;;20.09;100.00;99541.41;1583959;89;21587;-79
2022/06/12 01:59:06;;;;;;;19.95;11.15;;;;;;;20.09;100.00;99539.49;1565748;90;21106;-78
2022/06/12 02:02:01;;;;;;;21.87;12.07;;;;;;;20.08;100.00;99547.45;1566414;90;21045;-79
2022/06/12 02:05:00;;;;;;;22.20;11.33;;;;;;;20.06;100.00;99541.38;1547901;93;21092;-78
2022/06/12 02:07:37;;;;;;;21.82;11.83;;;;;;;20.05;100.00;99544.36;1547912;93;21057;-79
2022/06/12 02:10:13;;;;;;;21.77;11.85;;;;;;;20.04;100.00;99546.28;1528906;93;21077;-78
2022/06/12 02:15:52;;;;;;;22.67;12.30;;;;;;;20.02;100.00;99544.30;1529379;92;21100;-79
2022/06/12 02:18:34;;;;;;;21.52;12.37;;;;;;;20.03;100.00;99542.41;1531342;94;21167;-77
2022/06/12 02:21:32;;;;;;;22.50;11.30;;;;;;;20.03;100.00;99538.30;1544763;92;21181;-77
2022/06/12 02:24:28;;;;;;;20.62;11.63;;;;;;;20.04;100.00;99539.42;1485236;97;21040;-79
2022/06/12 02:27:18;;;;;;;21.33;11.97;;;;;;;20.06;100.00;99539.16;1485087;97;21108;-78
2022/06/12 02:29:53;;;;;;;22.42;11.83;;;;;;;20.07;100.00;99538.91;1485200;97;21107;-78
2022/06/12 02:32:24;;;;;;;20.50;11.70;;;;;;;20.09;100.00;99541.41;1485197;97;21111;-79
2022/06/12 02:34:59;;;;;;;22.25;12.37;;;;;;;20.10;100.00;99534.86;1489185;95;21032;-79
2022/06/12 02:37:31;;;;;;;22.22;12.78;;;;;;;20.11;100.00;99535.13;1508320;95;21129;-78
2022/06/12 02:40:02;;;;;;;23.57;12.90;;;;;;;20.17;100.00;99533.31;1524310;94;21082;-78
2022/06/12 02:42:33;;;;;;;24.80;14.03;;;;;;;20.22;100.00;99533.41;1505050;94;21094;-78
2022/06/12 02:45:26;;;;;;;23.42;13.55;;;;;;;20.28;100.00;99526.95;1524368;94;21102;-78
2022/06/12 02:47:53;;;;;;;24.87;14.38;;;;;;;20.37;100.00;99528.75;1503398;93;21155;-77
2022/06/12 02:50:22;;;;;;;26.33;14.05;;;;;;;20.49;100.00;99524.84;1498316;95;21622;-78
2022/06/12 02:53:01;;;;;;;23.57;13.58;;;;;;;20.59;100.00;99540.67;1489801;96;21109;-79
2022/06/12 02:55:46;;;;;;;25.80;14.53;;;;;;;20.67;100.00;99533.95;1469042;98;21119;-78
2022/06/12 02:58:34;;;;;;;27.10;13.50;;;;;;;20.71;100.00;99538.40;1468709;97;21176;-77
2022/06/12 03:01:09;;;;;;;24.65;13.83;;;;;;;20.72;100.00;99540.08;1493873;94;21219;-78
2022/06/12 03:04:04;;;;;;;26.62;14.10;;;;;;;20.70;100.00;99541.70;1512544;94;21118;-77
2022/06/12 03:06:31;;;;;;;;;;;;;;;20.66;100.00;99542.73;1524680;94;21055;-77
2022/06/12 03:08:58;;;;;;;26.52;14.38;;;;;;;20.60;100.00;99543.69;1522309;94;20123;-78
2022/06/12 03:11:39;;;;;;;23.92;14.20;;;;;;;20.51;100.00;99532.83;1522319;94;21139;-78
2022/06/12 03:14:10;;;;;;;28.40;14.58;;;;;;;20.44;100.00;99532.16;1498301;96;21117;-77
2022/06/12 03:16:41;;;;;;;25.65;14.58;;;;;;;20.38;100.00;99530.39;1470138;97;21154;-75
2022/06/12 03:19:20;;;;;;;27.25;15.15;;;;;;;20.32;100.00;99528.10;1470939;98;21672;-76
2022/06/12 03:22:06;;;;;;;27.62;15.13;;;;;;;20.29;100.00;99518.47;1446562;98;21102;-77
2022/06/12 03:24:41;;;;;;;27.95;15.65;;;;;;;20.30;100.00;99523.41;1443603;98;21095;-75
2022/06/12 03:27:20;;;;;;;25.68;14.93;;;;;;;20.32;100.00;99516.30;1455084;99;21095;-75
2022/06/12 03:30:10;;;;;;;26.75;15.48;;;;;;;20.35;100.00;99519.38;1454802;99;21697;-77
2022/06/12 03:32:56;;;;;;;28.50;16.40;;;;;;;20.40;100.00;99515.35;1430327;100;21132;-76
2022/06/12 03:35:54;;;;;;;27.60;16.12;;;;;;;20.47;100.00;99509.16;1409532;102;21624;-76
2022/06/12 03:38:33;;;;;;;30.05;17.23;;;;;;;20.57;100.00;99512.59;1417896;101;21111;-76
2022/06/12 03:41:05;;;;;;;28.02;16.40;;;;;;;20.66;100.00;99511.67;1417617;101;21216;-76
2022/06/12 03:43:51;;;;;;;27.25;16.65;;;;;;;20.73;100.00;99504.64;1382039;102;21148;-75
2022/06/12 03:46:33;;;;;;;25.43;16.25;;;;;;;20.79;100.00;99505.84;1388589;103;21129;-77
2022/06/12 03:49:25;;;;;;;30.52;16.35;;;;;;;20.85;100.00;99505.37;1369982;105;21241;-76
2022/06/12 03:52:14;;;;;;;27.13;16.35;;;;;;;20.90;100.00;99504.63;1383418;102;21122;-77
2022/06/12 03:55:07;;;;;;;27.00;17.20;;;;;;;20.95;100.00;99500.59;1370860;103;21232;-75
2022/06/12 04:00:37;;;;;;;28.02;17.00;;;;;;;21.08;100.00;99500.21;1355070;103;21239;-77
2022/06/12 04:03:22;;;;;;;30.45;16.70;;;;;;;21.13;100.00;99498.91;1360114;106;21152;-76
2022/06/12 04:06:03;;;;;;;25.88;17.12;;;;;;;21.17;100.00;99493.73;1359899;106;21174;-75
2022/06/12 04:08:39;;;;;;;29.27;17.60;;;;;;;21.21;100.00;99490.23;1359981;106;21156;-76
2022/06/12 04:11:09;;;;;;;27.45;16.93;;;;;;;21.26;100.00;99490.83;1322525;108;21665;-75
2022/06/12 04:13:38;;;;;;;27.82;16.30;;;;;;;21.32;100.00;99488.45;1329522;106;21153;-75
2022/06/12 04:16:36;;;;;;;31.48;17.60;;;;;;;21.39;100.00;99481.39;1321992;107;21137;-77
2022/06/12 04:19:05;;;;;;;35.13;17.20;;;;;;;21.49;100.00;99484.83;1325993;108;21272;-77
2022/06/12 04:21:46;;;;;;;30.23;16.85;;;;;;;21.66;100.00;99478.70;1358123;105;21633;-76
2022/06/12 04:24:21;;;;;;;27.02;16.52;;;;;;;21.88;100.00;99477.83;1339023;107;21181;-75
2022/06/12 04:27:14;;;;;;;25.32;16.23;;;;;;;22.14;100.00;99476.17;1340041;104;21137;-75
2022/06/12 04:29:58;;;;;;;26.10;16.80;;;;;;;22.40;100.00;99483.30;1386144;101;21108;-75
2022/06/12 04:32:26;;;;;;;24.92;15.80;;;;;;;22.65;100.00;99478.00;1382437;104;21185;-75
2022/06/12 04:34:53;;;;;;;30.27;17.10;;;;;;;22.86;100.00;99476.73;1356992;106;21149;-76
2022/06/12 04:37:30;;;;;;;26.85;15.53;;;;;;;23.01;100.00;99477.40;1382805;104;21180;-77
2022/06/12 04:40:03;;;;;;;25.17;15.88;;;;;;;23.15;100.00;99475.84;1360791;105;21119;-76
2022/06/12 04:42:31;;;;;;;27.32;16.37;;;;;;;23.29;100.00;99481.16;1399051;103;21220;-75
2022/06/12 04:45:00;;;;;;;24.02;14.43;;;;;;;23.41;100.00;99480.94;1369352;105;21154;-77
2022/06/12 04:47:29;;;;;;;26.12;14.30;;;;;;;23.55;100.00;99481.80;1400702;100;21129;-74
2022/06/12 04:49:56;;;;;;;25.45;15.58;;;;;;;23.62;100.00;99479.62;1404560;100;21124;-76
2022/06/12 04:52:25;;;;;;;28.62;16.20;;;;;;;23.58;100.00;99479.33;1405350;102;21672;-77
2022/06/12 04:54:53;;;;;;;25.37;15.45;;;;;;;23.43;100.00;99480.12;1405488;102;21637;-76
2022/06/12 04:57:22;;;;;;;25.88;16.10;;;;;;;23.25;100.00;99484.18;1413649;101;21131;-76
2022/06/12 04:59:49;;;;;;;24.23;15.40;;;;;;;23.14;100.00;99475.55;1417134;101;21164;-76
2022/06/12 05:02:17;;;;;;;23.45;14.87;;;;;;;23.20;100.00;99477.81;1440016;99;21185;-76
2022/06/12 05:04:45;;;;;;;21.40;13.45;;;;;;;23.34;100.00;99474.84;1440250;100;21132;-76
2022/06/12 05:07:13;;;;;;;27.00;13.72;;;;;;;23.61;100.00;99469.14;1461752;94;21141;-76
2022/06/12 05:09:40;;;;;;;24.43;13.38;;;;;;;23.98;100.00;99473.68;1522900;94;21103;-75
2022/06/12 05:12:08;;;;;;;23.00;12.80;;;;;;;24.35;100.00;99474.55;1522862;94;21100;-75
2022/06/12 05:14:37;;;;;;;20.17;11.83;;;;;;;24.69;100.00;99482.30;1530815;93;21049;-74
2022/06/12 05:17:08;;;;;;;22.10;12.43;;;;;;;24.92;100.00;99475.35;1517675;95;21125;-76
2022/06/12 05:19:38;;;;;;;23.52;12.10;;;;;;;25.15;100.00;99478.88;1542205;89;21595;-76
2022/06/12 05:22:05;;;;;;;24.45;12.33;;;;;;;25.41;100.00;99476.06;1653931;86;21046;-76
2022/06/12 05:24:33;;;;;;;21.10;11.18;;;;;;;25.62;100.00;99476.80;1614252;89;21090;-77
2022/06/12 05:27:06;;;;;;;21.52;11.78;;;;;;;25.79;100.00;99479.75;1614403;89;21066;-76
2022/06/12 05:29:35;;;;;;;21.23;12.00;;;;;;;25.98;100.00;99477.19;1653350;85;21003;-76
2022/06/12 05:32:04;;;;;;;18.80;11.15;;;;;;;26.19;100.00;99477.84;1649759;87;21038;-77
2022/06/12 05:34:31;;;;;;;19.23;11.18;;;;;;;26.37;100.00;99478.55;1649247;87;21034;-76
2022/06/12 05:36:58;;;;;;;20.62;12.30;;;;;;;26.61;100.00;99470.31;1637728;88;21011;-79
2022/06/12 05:39:24;;;;;;;22.13;11.90;;;;;;;26.86;100.00;99469.26;1621266;89;21580;-77
2022/06/12 05:41:52;;;;;;;20.37;11.12;;;;;;;26.98;100.00;99473.56;1637647;88;21032;-77
2022/06/12 05:44:19;;;;;;;20.82;11.48;;;;;;;27.07;100.00;99475.95;1621331;87;21093;-76
2022/06/12 05:46:46;;;;;;;17.80;10.63;;;;;;;27.09;100.00;99474.56;1621638;87;21088;-77
2022/06/12 05:49:14;;;;;;;21.55;11.83;;;;;;;27.20;100.00;99479.42;1621554;89;21540;-76
2022/06/12 05:51:41;;;;;;;19.52;11.45;;;;;;;27.29;100.00;99479.63;1621523;89;21070;-77
2022/06/12 05:54:08;;;;;;;20.02;10.93;;;;;;;27.32;100.00;99472.11;1637721;88;21091;-78
2022/06/12 05:56:35;;;;;;;20.20;10.75;;;;;;;27.34;100.00;99476.80;1621487;89;21066;-76
2022/06/12 05:59:02;;;;;;;19.12;10.82;;;;;;;27.36;100.00;99477.33;1621442;89;21085;-78
2022/06/12 06:01:30;;;;;;;22.50;11.15;;;;;;;27.38;100.00;99472.88;1613688;87;21177;-76
2022/06/12 06:03:56;;;;;;;18.87;10.43;;;;;;;27.44;100.00;99473.88;1638760;88;21035;-79
2022/06/12 06:06:29;;;;;;;15.98;10.43;;;;;;;27.71;100.00;99464.65;1623489;88;21067;-79
2022/06/12 06:08:57;;;;;;;20.43;10.63;;;;;;;28.10;100.00;99465.79;1623561;87;21084;-78
2022/06/12 06:11:25;;;;;;;19.55;10.28;;;;;;;28.39;100.00;99475.31;1623407;88;21095;-79
2022/06/12 06:13:52;;;;;;;17.57;9.93;;;;;;;28.43;100.00;99479.70;1623853;87;21115;-76
2022/06/12 06:16:19;;;;;;;19.23;9.95;;;;;;;28.52;100.00;99476.48;1657835;86;21098;-79
2022/06/12 06:18:46;;;;;;;20.35;9.48;;;;;;;28.67;100.00;99477.37;1657886;86;21079;-78
2022/06/12 06:21:15;;;;;;;17.87;8.93;;;;;;;28.73;100.00;99478.37;1650176;87;21087;-78
2022/06/12 06:23:43;;;;;;;14.60;9.03;;;;;;;28.95;100.00;99470.75;1650204;87;21031;-79
2022/06/12 06:26:10;;;;;;;17.62;9.00;;;;;;;29.32;100.00;99466.16;1679071;85;21070;-79
2022/06/12 06:28:37;;;;;;;16.90;8.75;;;;;;;29.66;100.00;99471.84;1715624;84;21006;-80
2022/06/12 06:31:06;;;;;;;16.75;8.93;;;;;;;29.82;100.00;99473.74;1715556;84;21027;-78
2022/06/12 06:33:33;;;;;;;16.50;9.15;;;;;;;29.88;100.00;99469.69;1716036;84;21060;-78
2022/06/12 06:36:01;;;;;;;21.80;9.60;;;;;;;29.81;100.00;99469.30;1715467;84;21579;-79
2022/06/12 06:38:28;;;;;;;17.17;8.50;;;;;;;29.71;100.00;99479.23;1716764;84;21002;-78
2022/06/12 06:40:55;;;;;;;15.20;8.60;;;;;;;29.58;100.00;99475.92;1716697;84;20987;-80
2022/06/12 06:43:22;;;;;;;14.15;8.25;;;;;;;29.53;100.00;99476.30;1716552;84;21050;-78
2022/06/12 06:48:34;;;;;;;12.23;7.12;;;;;;;29.42;100.00;99478.20;1716464;84;20999;-77
2022/06/12 06:51:03;;;;;;;16.87;7.47;;;;;;;29.48;100.00;99469.98;1716246;84;21054;-77
2022/06/12 06:53:30;;;;;;;14.05;8.08;;;;;;;29.52;100.00;99471.04;1716519;84;21054;-75
2022/06/12 06:55:57;;;;;;;19.62;8.13;;;;;;;29.61;100.00;99473.34;1716340;84;20990;-78
2022/06/12 06:58:26;;;;;;;14.07;7.12;;;;;;;29.70;100.00;99477.03;1716538;84;20971;-78
2022/06/12 07:00:54;;;;;;;15.15;7.58;;;;;;;29.94;100.00;99467.60;1716256;83;21611;-76
2022/06/12 07:03:21;;;;;;;12.28;6.85;;;;;;;30.27;100.00;99466.81;1716438;84;21002;-76
2022/06/12 07:05:48;;;;;;;10.53;5.90;;;;;;;30.56;100.00;99473.95;1716346;84;21073;-78
2022/06/12 07:08:16;;;;;;;10.98;6.08;;;;;;;30.79;100.00;99473.91;1716360;84;21022;-76
2022/06/12 07:10:43;;;;;;;13.35;7.58;;;;;;;30.84;99.33;99479.35;1716342;84;21050;-77
2022/06/12 07:13:11;;;;;;;13.13;7.05;;;;;;;30.83;100.00;99469.34;1716205;84;21079;-77
2022/06/12 07:15:38;;;;;;;12.50;7.25;;;;;;;30.92;100.00;99470.23;1714704;84;21073;-77
2022/06/12 07:18:06;;;;;;;14.80;6.42;;;;;;;31.12;100.00;99469.42;1716068;84;21110;-78
2022/06/12 07:20:42;;;;;;;28.55;8.33;;;;;;;31.38;97.07;99468.94;1716285;84;21047;-78
2022/06/12 07:23:08;;;;;;;13.62;7.35;;;;;;;31.48;95.39;99461.39;1716429;84;20995;-77
2022/06/12 07:25:40;;;;;;;14.83;7.50;;;;;;;31.61;97.52;99466.07;1716419;84;21567;-77
2022/06/12 07:28:08;;;;;;;16.85;8.00;;;;;;;31.94;98.40;99458.06;1716848;84;21002;-77
2022/06/12 07:30:36;;;;;;;18.50;7.58;;;;;;;32.34;99.63;99459.29;1716320;84;21034;-77
2022/06/12 07:33:04;;;;;;;15.30;7.35;;;;;;;32.67;96.72;99460.73;1716646;84;21015;-78
2022/06/12 07:35:31;;;;;;;15.80;7.12;;;;;;;32.91;94.95;99458.19;1715399;84;21125;-78
2022/06/12 07:37:58;;;;;;;15.45;6.87;;;;;;;33.26;89.83;99453.88;1689980;84;21623;-77
2022/06/12 07:40:29;;;;;;;13.48;6.83;;;;;;;33.42;88.07;99454.70;1689806;84;20998;-77
2022/06/12 07:42:57;;;;;;;13.10;6.45;;;;;;;33.49;89.30;99454.98;1715745;84;21061;-77
2022/06/12 07:45:24;;;;;;;15.58;6.95;;;;;;;33.71;85.16;99455.27;1715687;84;21105;-77
2022/06/12 07:47:51;;;;;;;12.25;6.50;;;;;;;33.94;84.43;99457.75;1716086;84;21030;-78
2022/06/12 07:50:19;;;;;;;12.55;6.08;;;;;;;34.13;82.69;99463.69;1716532;84;21054;-76
2022/06/12 07:52:46;;;;;;;12.68;6.40;;;;;;;34.38;82.40;99449.20;1716800;84;21010;-79
2022/06/12 07:55:15;;;;;;;18.00;7.53;;;;;;;34.74;82.10;99448.28;1716353;84;21054;-79
2022/06/12 07:57:44;;;;;;;15.10;7.87;;;;;;;35.10;80.15;99451.73;1716647;84;21057;-78
2022/06/12 08:00:13;;;;;;;18.45;7.47;;;;;;;35.46;79.39;99452.92;1716384;84;21061;-79
2022/06/12 08:02:42;;;;;;;12.43;7.30;;;;;;;35.74;74.99;99453.03;1716429;83;21038;-78
2022/06/12 08:05:10;;;;;;;18.23;7.30;;;;;;;35.89;68.39;99447.27;1690885;84;21104;-78
2022/06/12 08:07:37;;;;;;;14.03;6.95;;;;;;;35.92;70.15;99445.72;1716612;84;21567;-78
2022/06/12 08:10:07;;;;;;;11.70;6.92;;;;;;;36.02;70.34;99441.01;1716280;84;21034;-80
2022/06/12 08:12:37;;;;;;;13.35;7.47;;;;;;;36.19;65.90;99447.50;1716597;84;20982;-78
2022/06/12 08:15:07;;;;;;;16.65;7.05;;;;;;;36.30;67.33;99436.82;1702261;84;21058;-81
2022/06/12 08:17:34;;;;;;;20.27;7.58;;;;;;;36.50;64.41;99442.58;1687985;85;21030;-76
2022/06/12 08:22:49;;;;;;;15.10;7.97;;;;;;;36.63;59.81;99436.28;1700208;84;21330;-77
2022/06/12 08:25:17;;;;;;;13.50;7.92;;;;;;;36.34;62.63;99432.70;1716221;84;21007;-77
2022/06/12 08:27:44;;;;;;;15.88;8.05;;;;;;;36.33;64.46;99441.50;1716635;84;21011;-76
2022/06/12 08:30:12;;;;;;;14.43;8.08;;;;;;;36.47;64.25;99438.48;1716378;84;21090;-76
2022/06/12 08:32:41;;;;;;;8.13;5.55;;;;;;;36.70;63.28;99432.28;1716566;84;21013;-75
2022/06/12 08:35:13;;;;;;;10.15;5.37;;;;;;;36.74;58.11;99436.59;1718019;81;21062;-72
2022/06/12 08:37:41;;;;;;;12.50;5.62;;;;;;;36.53;57.44;99426.95;1666203;83;21086;-74
2022/06/12 08:40:32;;;;;;;11.40;5.40;;;;;;;36.33;56.41;99427.42;1664672;86;21134;-74
2022/06/12 08:43:33;;;;;;;9.53;5.15;;;;;;;36.07;59.24;99423.88;1663928;86;21048;-75
2022/06/12 08:46:06;;;;;;;10.40;5.08;;;;;;;35.84;53.64;99425.58;1663612;86;21123;-74
2022/06/12 08:48:44;;;;;;;7.37;5.30;;;;;;;35.46;50.26;99432.44;1596877;90;21122;-75
2022/06/12 08:51:22;;;;;;;16.42;5.83;;;;;;;35.25;54.40;99426.35;1596684;90;21106;-75
2022/06/12 08:54:00;;;;;;;9.10;4.80;;;;;;;35.33;55.18;99420.40;1599265;90;21006;-76
2022/06/12 08:56:35;;;;;;;10.58;5.00;;;;;;;35.13;55.71;99420.14;1599093;90;21034;-75
2022/06/12 08:59:29;;;;;;;9.25;4.87;;;;;;;35.06;52.67;99419.91;1577373;90;21053;-74
2022/06/12 09:01:56;;;;;;;9.55;5.28;;;;;;;35.16;55.48;99415.80;1601670;89;21057;-73
2022/06/12 09:04:24;;;;;;;8.75;5.22;;;;;;;35.32;52.21;99412.53;1605617;89;21041;-74
2022/06/12 09:07:14;;;;;;;20.92;6.28;;;;;;;35.18;53.68;99407.27;1605579;89;21084;-75
2022/06/12 09:09:47;;;;;;;13.78;5.90;;;;;;;35.25;56.09;99401.06;1605769;89;21519;-74
2022/06/12 09:12:26;;;;;;;11.08;5.65;;;;;;;35.27;58.87;99398.72;1602118;88;21041;-75
2022/06/12 09:15:08;;;;;;;13.22;5.70;;;;;;;35.29;54.61;99397.80;1605657;89;21070;-75
2022/06/12 09:17:57;;;;;;;13.10;5.45;;;;;;;35.32;50.43;99399.89;1528561;93;21098;-75
2022/06/12 09:20:31;;;;;;;9.00;5.70;;;;;;;35.28;49.07;99393.94;1500052;93;21099;-74
2022/06/12 09:23:06;;;;;;;9.78;5.10;;;;;;;35.24;51.68;99392.42;1494680;96;21138;-75
2022/06/12 09:26:06;;;;;;;10.32;4.97;;;;;;;35.49;52.86;99383.95;1489127;96;21646;-75
2022/06/12 09:28:50;;;;;;;11.85;5.60;;;;;;;35.33;49.66;99383.86;1489032;96;21115;-77
2022/06/12 09:31:24;;;;;;;11.20;5.62;;;;;;;35.18;52.55;99387.60;1468347;96;21085;-75
2022/06/12 09:34:30;;;;;;;10.75;6.03;;;;;;;35.16;52.65;99376.47;1456435;97;21104;-75
2022/06/12 09:40:34;;;;;;;10.88;6.50;;;;;;;35.39;51.32;99380.22;1459183;97;21619;-75
2022/06/12 09:43:18;;;;;;;16.42;7.47;;;;;;;35.41;49.92;99368.03;1459182;98;21042;-73
2022/06/12 09:46:04;;;;;;;11.85;6.47;;;;;;;35.26;47.15;99371.00;1492812;95;21133;-75
2022/06/12 09:48:46;;;;;;;10.05;6.22;;;;;;;35.29;47.54;99367.45;1509875;95;21153;-74
2022/06/12 09:51:44;;;;;;;10.63;6.85;;;;;;;35.34;47.58;99356.82;1507166;95;21138;-76
2022/06/12 09:54:54;;;;;;;8.40;5.92;;;;;;;35.36;48.95;99356.44;1516753;92;21543;-75
2022/06/12 09:57:44;;;;;;;8.83;5.95;;;;;;;35.71;51.42;99350.29;1562742;92;21134;-76
2022/06/12 10:00:23;;;;;;;11.05;6.10;;;;;;;36.16;51.80;99340.72;1562702;92;21133;-75
2022/06/12 10:03:46;;;;;;;13.15;6.33;;;;;;;36.57;51.36;99344.23;1556495;92;21093;-77
2022/06/12 10:06:27;;;;;;;13.25;6.33;;;;;;;36.94;44.83;99345.38;1554110;92;21069;-74
2022/06/12 10:09:25;;;;;;;12.30;6.40;;;;;;;36.99;43.40;99342.28;1553976;92;21030;-76
2022/06/12 10:12:04;;;;;;;11.63;6.42;;;;;;;36.78;44.84;99340.34;1523946;94;21113;-75
2022/06/12 10:14:36;;;;;;;12.07;6.87;;;;;;;36.73;43.55;99338.63;1548302;90;21022;-74
2022/06/12 10:17:17;;;;;;;13.53;7.10;;;;;;;36.60;43.61;99332.25;1618444;88;21026;-74
2022/06/12 10:20:05;;;;;;;13.78;7.12;;;;;;;36.64;44.04;99323.89;1589361;90;21037;-74
2022/06/12 10:22:43;;;;;;;14.58;7.15;;;;;;;36.76;44.19;99319.61;1598015;90;21071;-74
2022/06/12 10:28:25;;;;;;;13.43;7.60;;;;;;;37.15;43.04;99314.08;1566226;91;21055;-78
2022/06/12 10:31:12;;;;;;;15.60;7.90;;;;;;;36.94;41.45;99317.21;1536056;93;21051;-77
2022/06/12 10:33:51;;;;;;;16.05;7.72;;;;;;;36.58;42.22;99310.66;1515300;95;21137;-75
2022/06/12 10:36:30;;;;;;;13.28;7.10;;;;;;;36.72;41.92;99308.02;1569722;91;21071;-76
2022/06/12 10:39:20;;;;;;;12.70;6.62;;;;;;;36.79;43.42;99303.96;1569669;91;21150;-77
2022/06/12 10:41:59;;;;;;;12.43;7.50;;;;;;;36.92;43.16;99300.44;1569910;91;21060;-75
2022/06/12 10:44:42;;;;;;;13.13;7.47;;;;;;;36.94;42.26;99292.42;1569768;91;21060;-76
2022/06/12 10:47:22;;;;;;;15.45;7.47;;;;;;;36.82;43.19;99293.38;1569754;91;21112;-75
2022/06/12 10:50:25;;;;;;;9.85;6.78;;;;;;;36.75;41.29;99290.39;1570014;91;21012;-76
2022/06/12 10:53:13;;;;;;;;;;;;;;;36.78;42.40;99284.84;1541371;93;21075;-74
2022/06/12 10:56:09;;;;;;;13.40;7.28;;;;;;;37.10;45.08;99281.95;1524839;94;20151;-75
2022/06/12 10:59:02;;;;;;;15.85;7.25;;;;;;;37.53;43.88;99273.62;1524616;94;21588;-77
2022/06/12 11:01:51;;;;;;;11.45;6.90;;;;;;;37.57;39.67;99274.51;1524897;94;21114;-77
2022/06/12 11:04:42;;;;;;;14.65;7.28;;;;;;;37.18;39.01;99285.77;1529870;92;21090;-77
2022/06/12 11:07:15;;;;;;;12.68;6.75;;;;;;;36.70;39.27;99278.00;1529854;94;21124;-77
2022/06/12 11:10:01;;;;;;;12.95;7.17;;;;;;;36.53;40.18;99272.95;1546365;93;21158;-76
2022/06/12 11:12:52;;;;;;;14.63;7.30;;;;;;;36.75;41.21;99270.08;1546406;93;21087;-76
2022/06/12 11:15:54;;;;;;;12.53;6.65;;;;;;;36.85;39.14;99268.72;1521101;92;21117;-76
2022/06/12 11:18:39;;;;;;;9.88;6.22;;;;;;;36.95;39.62;99266.71;1503081;96;21158;-77
2022/06/12 11:21:21;;;;;;;14.85;6.60;;;;;;;37.29;39.73;99250.16;1502863;96;21149;-78
2022/06/12 11:24:15;;;;;;;11.68;6.35;;;;;;;37.63;39.16;99240.61;1528341;90;21076;-77
2022/06/12 11:27:26;;;;;;;11.97;6.70;;;;;;;37.80;37.41;99231.67;1584689;89;21230;-77
2022/06/12 11:30:01;;;;;;;13.43;6.75;;;;;;;37.63;38.38;99227.91;1642241;87;21082;-76
2022/06/12 11:32:54;;;;;;;11.97;6.50;;;;;;;37.90;39.66;99219.58;1642135;87;21030;-75
2022/06/12 11:35:39;;;;;;;16.12;6.50;;;;;;;38.03;37.37;99221.61;1639360;86;21124;-77
2022/06/12 11:38:25;;;;;;;16.32;7.22;;;;;;;38.07;39.13;99221.06;1638717;87;21133;-76
2022/06/12 11:41:06;;;;;;;10.68;6.85;;;;;;;38.04;34.97;99229.70;1642362;87;21023;-77
2022/06/12 11:43:42;;;;;;;16.52;8.55;;;;;;;37.95;35.78;99234.18;1642143;87;21516;-75
2022/06/12 11:46:20;;;;;;;11.83;7.15;;;;;;;38.16;37.25;99230.95;1599911;90;21106;-78
2022/06/12 11:49:07;;;;;;;13.55;7.70;;;;;;;38.36;36.81;99237.33;1577480;91;21077;-76
2022/06/12 11:52:08;;;;;;;14.87;6.97;;;;;;;38.34;35.36;99249.60;1574894;91;21631;-78
2022/06/12 11:54:53;;;;;;;14.25;7.30;;;;;;;38.26;37.14;99247.84;1577642;91;21674;-77
2022/06/12 11:57:49;;;;;;;12.68;7.00;;;;;;;38.23;36.01;99244.38;1573981;91;21335;-77
2022/06/12 12:00:23;;;;;;;10.13;6.90;;;;;;;38.22;38.62;99233.47;1577762;91;21125;-78
2022/06/12 12:03:31;;;;;;;11.08;6.40;;;;;;;38.49;39.80;99232.28;1541098;92;21135;-77
2022/06/12 12:06:03;;;;;;;11.57;7.50;;;;;;;38.80;39.77;99234.61;1561771;92;21201;-77
2022/06/12 12:08:55;;;;;;;78.78;11.22;;;;;;;38.99;35.96;99249.19;1562199;92;21569;-79
2022/06/12 12:11:32;;;;;;;15.80;5.50;;;;;;;38.70;38.01;99248.78;1562289;92;21158;-77
2022/06/12 12:14:04;;;;;;;15.28;5.22;;;;;;;38.05;40.19;99248.25;1560813;92;21147;-78
2022/06/12 12:16:45;;;;;;;11.10;4.90;;;;;;;37.24;42.30;99244.25;1523671;93;21111;-79
2022/06/12 12:19:46;;;;;;;18.92;5.33;;;;;;;36.48;44.85;99253.52;1542633;93;21067;-79
2022/06/12 12:22:39;;;;;;;34.50;6.55;;;;;;;35.92;48.02;99262.90;1544474;92;21048;-80